createdAt,value
2022-12-09T00:01:44.413Z,0.35
2022-12-09T00:04:15.912Z,0.40
2022-12-09T00:06:47.206Z,0.30
2022-12-09T00:09:18.784Z,0.40
2022-12-09T00:11:50.212Z,0.47
2022-12-09T00:14:21.208Z,0.30
2022-12-09T00:16:52.280Z,0.30
2022-12-09T00:19:23.256Z,0.28
2022-12-09T00:21:54.119Z,0.40
2022-12-09T00:24:24.837Z,0.35
2022-12-09T00:26:56.547Z,0.30
2022-12-09T00:29:27.445Z,0.30
2022-12-09T00:31:58.466Z,0.30
2022-12-09T00:34:29.464Z,0.20
2022-12-09T00:37:00.570Z,0.30
2022-12-09T00:39:31.523Z,0.30
2022-12-09T00:42:02.613Z,0.40
2022-12-09T00:44:33.368Z,0.35
2022-12-09T00:47:04.942Z,0.20
2022-12-09T00:49:35.834Z,0.30
2022-12-09T00:52:06.885Z,0.30
2022-12-09T00:54:37.988Z,0.50
2022-12-09T00:57:09.286Z,0.50
2022-12-09T00:59:40.041Z,0.30
2022-12-09T01:02:11.553Z,0.40
2022-12-09T01:04:44.093Z,0.47
2022-12-09T01:07:15.011Z,0.50
2022-12-09T01:09:46.081Z,0.50
2022-12-09T01:12:17.178Z,0.50
2022-12-09T01:14:48.104Z,0.40
2022-12-09T01:17:18.924Z,0.32
2022-12-09T01:19:50.418Z,0.50
2022-12-09T01:22:21.402Z,0.40
2022-12-09T01:24:52.469Z,0.40
2022-12-09T01:27:24.323Z,0.50
2022-12-09T01:29:55.269Z,0.63
2022-12-09T01:32:26.161Z,0.40
2022-12-09T01:34:57.016Z,0.40
2022-12-09T01:37:28.229Z,0.43
2022-12-09T01:39:59.335Z,0.50
2022-12-09T01:42:30.436Z,0.57
2022-12-09T01:45:31.855Z,0.45
2022-12-09T01:48:09.982Z,0.50
2022-12-09T01:51:16.893Z,0.40
2022-12-09T01:53:52.314Z,0.40
2022-12-09T01:56:33.350Z,0.50
2022-12-09T01:59:09.726Z,1.40
2022-12-09T02:01:41.671Z,1.00
2022-12-09T02:04:12.893Z,0.90
2022-12-09T02:06:44.012Z,0.70
2022-12-09T02:09:17.388Z,0.60
2022-12-09T02:12:06.647Z,0.60
2022-12-09T02:15:00.153Z,0.40
2022-12-09T02:17:43.303Z,0.50
2022-12-09T02:20:30.551Z,0.47
2022-12-09T02:23:27.486Z,0.40
2022-12-09T02:28:46.691Z,0.40
2022-12-09T02:31:22.338Z,0.40
2022-12-09T02:34:05.520Z,0.68
2022-12-09T02:36:58.467Z,0.40
2022-12-09T02:39:47.836Z,0.40
2022-12-09T02:42:21.079Z,0.40
2022-12-09T02:44:53.976Z,0.30
2022-12-09T02:47:27.676Z,0.35
2022-12-09T02:50:07.402Z,0.30
2022-12-09T02:52:40.534Z,0.40
2022-12-09T02:55:12.927Z,0.32
2022-12-09T02:57:44.240Z,0.20
2022-12-09T03:00:17.868Z,0.22
2022-12-09T03:02:52.335Z,0.30
2022-12-09T03:05:38.822Z,0.20
2022-12-09T03:08:34.076Z,0.38
2022-12-09T03:11:18.080Z,0.35
2022-12-09T03:14:06.868Z,0.30
2022-12-09T03:16:41.710Z,0.30
2022-12-09T03:19:38.579Z,0.30
2022-12-09T03:22:13.812Z,0.40
2022-12-09T03:24:47.974Z,0.40
2022-12-09T03:27:21.925Z,0.40
2022-12-09T03:29:54.764Z,0.30
2022-12-09T03:32:28.286Z,0.38
2022-12-09T03:35:05.935Z,0.30
2022-12-09T03:37:38.737Z,0.30
2022-12-09T03:40:14.377Z,0.40
2022-12-09T03:42:55.615Z,0.30
2022-12-09T03:45:26.934Z,0.40
2022-12-09T03:47:58.019Z,0.20
2022-12-09T03:50:33.326Z,0.30
2022-12-09T03:53:13.591Z,0.30
2022-12-09T03:55:50.476Z,0.38
2022-12-09T03:58:21.483Z,0.20
2022-12-09T04:00:53.454Z,0.30
2022-12-09T04:03:25.552Z,0.30
2022-12-09T04:05:56.464Z,0.30
2022-12-09T04:08:27.729Z,0.40
2022-12-09T04:10:58.709Z,0.30
2022-12-09T04:13:29.998Z,0.40
2022-12-09T04:18:32.123Z,0.30
2022-12-09T04:21:06.909Z,0.40
2022-12-09T04:23:42.466Z,0.40
2022-12-09T04:26:21.206Z,0.40
2022-12-09T04:28:52.673Z,0.30
2022-12-09T04:33:54.997Z,0.40
2022-12-09T04:36:25.928Z,0.43
2022-12-09T04:38:57.127Z,0.57
2022-12-09T04:41:27.909Z,0.50
2022-12-09T04:43:58.806Z,0.40
2022-12-09T04:46:29.563Z,0.47
2022-12-09T04:49:00.627Z,0.60
2022-12-09T04:51:38.835Z,0.63
2022-12-09T04:54:16.702Z,0.70
2022-12-09T04:56:47.942Z,0.50
2022-12-09T04:59:18.924Z,0.60
2022-12-09T05:01:50.317Z,0.60
2022-12-09T05:04:21.509Z,0.60
2022-12-09T05:06:52.736Z,0.80
2022-12-09T05:11:55.848Z,0.60
2022-12-09T05:14:26.917Z,0.80
2022-12-09T05:16:58.152Z,0.85
2022-12-09T05:19:29.418Z,0.73
2022-12-09T05:22:00.648Z,0.90
2022-12-09T05:24:31.829Z,1.20
2022-12-09T05:27:02.691Z,0.90
2022-12-09T05:29:33.599Z,1.08
2022-12-09T05:32:04.454Z,1.10
2022-12-09T05:34:36.797Z,1.00
2022-12-09T05:37:08.314Z,0.80
2022-12-09T05:39:39.289Z,1.05
2022-12-09T05:42:10.083Z,1.20
2022-12-09T05:44:41.682Z,1.60
2022-12-09T05:47:12.856Z,1.40
2022-12-09T05:49:43.957Z,5.97
2022-12-09T05:52:15.753Z,5.18
2022-12-09T05:57:17.904Z,1.70
2022-12-09T06:02:19.717Z,0.90
2022-12-09T06:04:51.182Z,1.00
2022-12-09T06:07:22.429Z,1.10
2022-12-09T06:09:53.977Z,1.00
2022-12-09T06:12:25.107Z,0.77
2022-12-09T06:14:56.103Z,1.13
2022-12-09T06:17:27.801Z,0.90
2022-12-09T06:19:58.661Z,0.70
2022-12-09T06:22:30.056Z,0.90
2022-12-09T06:25:00.987Z,0.90
2022-12-09T06:27:33.198Z,0.95
2022-12-09T06:30:04.633Z,0.90
2022-12-09T06:32:35.382Z,1.08
2022-12-09T06:35:08.810Z,0.82
2022-12-09T06:37:40.469Z,0.90
2022-12-09T06:40:12.476Z,0.75
2022-12-09T06:42:43.458Z,1.00
2022-12-09T06:45:14.920Z,1.00
2022-12-09T06:47:46.824Z,0.80
2022-12-09T06:52:49.063Z,0.90
2022-12-09T06:55:19.856Z,0.90
2022-12-09T06:57:51.027Z,0.77
2022-12-09T07:00:22.677Z,0.82
2022-12-09T07:02:55.521Z,0.80
2022-12-09T07:05:27.765Z,1.15
2022-12-09T07:07:59.096Z,1.35
2022-12-09T07:10:31.611Z,0.90
2022-12-09T07:13:04.260Z,0.95
2022-12-09T07:15:35.711Z,0.70
2022-12-09T07:18:06.899Z,0.70
2022-12-09T07:20:37.961Z,0.70
2022-12-09T07:23:08.811Z,0.75
2022-12-09T07:25:39.663Z,0.80
2022-12-09T07:28:10.923Z,1.00
2022-12-09T07:30:42.059Z,0.60
2022-12-09T07:33:13.187Z,0.80
2022-12-09T07:38:15.857Z,0.93
2022-12-09T07:40:46.822Z,0.90
2022-12-09T07:43:18.081Z,2.45
2022-12-09T07:45:50.759Z,17.85
2022-12-09T07:48:22.348Z,5.75
2022-12-09T07:50:53.260Z,3.55
2022-12-09T07:53:24.363Z,3.60
2022-12-09T07:55:55.429Z,2.50
2022-12-09T07:58:26.958Z,2.05
2022-12-09T08:00:57.890Z,2.03
2022-12-09T08:03:29.003Z,2.50
2022-12-09T08:06:00.353Z,1.70
2022-12-09T08:08:32.072Z,1.08
2022-12-09T08:11:30.171Z,3.15
2022-12-09T08:14:10.445Z,6.13
2022-12-09T08:16:43.177Z,4.40
2022-12-09T08:19:15.041Z,1.73
2022-12-09T08:21:49.763Z,1.30
2022-12-09T08:24:25.437Z,0.90
2022-12-09T08:29:28.679Z,0.80
2022-12-09T08:34:30.853Z,1.40
2022-12-09T08:37:03.087Z,1.13
2022-12-09T08:39:34.993Z,1.33
2022-12-09T08:44:36.932Z,0.90
2022-12-09T08:47:08.221Z,0.77
2022-12-09T08:49:39.537Z,1.00
2022-12-09T08:52:10.791Z,1.30
2022-12-09T08:54:41.891Z,0.98
2022-12-09T08:57:13.002Z,1.27
2022-12-09T08:59:45.377Z,0.60
2022-12-09T09:02:17.239Z,0.88
2022-12-09T09:04:48.552Z,1.50
2022-12-09T09:07:20.225Z,1.55
2022-12-09T09:09:51.508Z,1.33
2022-12-09T09:12:22.757Z,3.65
2022-12-09T09:14:54.816Z,4.80
2022-12-09T09:17:26.707Z,32.45
2022-12-09T09:19:58.477Z,31.33
2022-12-09T09:22:31.200Z,27.85
2022-12-09T09:25:02.517Z,83.50
2022-12-09T09:27:34.113Z,146.88
2022-12-09T09:30:06.541Z,170.07
2022-12-09T09:32:38.744Z,312.80
2022-12-09T09:35:10.187Z,215.80
2022-12-09T09:37:41.711Z,40.75
2022-12-09T09:40:15.145Z,49.05
2022-12-09T09:42:51.041Z,22.60
2022-12-09T09:45:25.601Z,23.40
2022-12-09T09:48:00.152Z,18.58
2022-12-09T09:51:07.228Z,14.77
2022-12-09T09:53:38.541Z,18.13
2022-12-09T09:56:30.272Z,16.20
2022-12-09T09:59:20.458Z,14.80
2022-12-09T10:02:28.416Z,20.95
2022-12-09T10:05:18.434Z,8.38
2022-12-09T10:07:54.625Z,1.90
2022-12-09T10:10:37.558Z,0.95
2022-12-09T10:13:18.847Z,1.23
2022-12-09T10:16:21.836Z,0.70
2022-12-09T10:19:08.038Z,1.33
2022-12-09T10:21:43.745Z,3.55
2022-12-09T10:24:40.333Z,14.15
2022-12-09T10:27:31.341Z,8.98
2022-12-09T10:30:07.034Z,6.10
2022-12-09T10:32:39.314Z,2.05
2022-12-09T10:35:22.659Z,1.33
2022-12-09T10:37:56.391Z,1.27
2022-12-09T10:40:39.542Z,1.17
2022-12-09T10:43:40.991Z,1.00
2022-12-09T10:46:21.018Z,0.93
2022-12-09T10:48:54.908Z,0.70
2022-12-09T10:51:28.942Z,0.80
2022-12-09T10:54:02.735Z,0.60
2022-12-09T10:56:38.837Z,0.68
2022-12-09T10:59:21.721Z,0.70
2022-12-09T11:02:01.986Z,0.73
2022-12-09T11:04:36.582Z,0.80
2022-12-09T11:07:27.991Z,0.60
2022-12-09T11:09:59.059Z,0.70
2022-12-09T11:12:38.198Z,1.60
2022-12-09T11:15:14.240Z,2.08
2022-12-09T11:18:05.169Z,4.57
2022-12-09T11:20:37.671Z,2.10
2022-12-09T11:23:18.044Z,6.55
2022-12-09T11:26:07.060Z,2.33
2022-12-09T11:28:42.096Z,1.50
2022-12-09T11:31:30.339Z,1.30
2022-12-09T11:34:05.422Z,1.73
2022-12-09T11:36:40.608Z,1.15
2022-12-09T11:39:28.399Z,3.00
2022-12-09T11:42:18.155Z,6.28
2022-12-09T11:45:19.048Z,19.67
2022-12-09T11:48:24.229Z,27.33
2022-12-09T11:50:43.955Z,44.75
2022-12-09T11:53:14.798Z,39.60
2022-12-09T11:56:00.237Z,19.00
2022-12-09T11:58:44.517Z,7.88
2022-12-09T12:01:38.777Z,4.72
2022-12-09T12:04:12.467Z,2.20
2022-12-09T12:06:49.943Z,1.60
2022-12-09T12:09:44.519Z,1.60
2022-12-09T12:12:24.426Z,1.60
2022-12-09T12:14:56.060Z,1.48
2022-12-09T12:17:38.935Z,0.90
2022-12-09T12:20:13.671Z,0.45
2022-12-09T12:23:00.647Z,0.60
2022-12-09T12:25:56.103Z,0.50
2022-12-09T12:29:07.972Z,0.57
2022-12-09T12:32:13.902Z,0.50
2022-12-09T12:35:05.775Z,0.60
2022-12-09T12:40:23.482Z,0.60
2022-12-09T12:43:21.153Z,0.52
2022-12-09T12:46:37.247Z,0.50
2022-12-09T12:49:26.150Z,0.60
2022-12-09T12:52:39.445Z,0.47
2022-12-09T12:55:19.801Z,0.50
2022-12-09T12:58:16.778Z,0.50
2022-12-09T13:01:10.577Z,0.60
2022-12-09T13:04:00.084Z,0.52
2022-12-09T13:06:46.118Z,0.65
2022-12-09T13:09:24.515Z,0.65
2022-12-09T13:12:41.430Z,0.80
2022-12-09T13:15:16.582Z,1.25
2022-12-09T13:17:49.599Z,1.00
2022-12-09T13:20:41.442Z,0.57
2022-12-09T13:25:58.256Z,0.60
2022-12-09T13:28:53.414Z,0.80
2022-12-09T13:31:31.653Z,0.55
2022-12-09T13:34:20.952Z,0.60
2022-12-09T13:36:51.876Z,0.60
2022-12-09T13:39:43.765Z,0.50
2022-12-09T13:42:53.417Z,0.57
2022-12-09T13:45:29.289Z,0.45
2022-12-09T13:48:22.821Z,0.50
2022-12-09T13:50:55.644Z,0.80
2022-12-09T13:53:52.207Z,0.80
2022-12-09T13:56:27.817Z,0.80
2022-12-09T13:59:35.434Z,0.65
2022-12-09T14:02:33.375Z,0.70
2022-12-09T14:05:11.209Z,0.60
2022-12-09T14:07:52.262Z,0.60
2022-12-09T14:10:42.302Z,0.50
2022-12-09T14:13:34.455Z,0.60
2022-12-09T14:18:47.943Z,0.40
2022-12-09T14:21:21.599Z,0.50
2022-12-09T14:24:11.028Z,0.70
2022-12-09T14:26:47.779Z,0.60
2022-12-09T14:29:44.587Z,0.40
2022-12-09T14:32:28.706Z,0.57
2022-12-09T14:35:11.809Z,0.38
2022-12-09T14:38:04.857Z,0.50
2022-12-09T14:40:44.815Z,0.50
2022-12-09T14:43:43.531Z,0.50
2022-12-09T14:46:35.154Z,0.50
2022-12-09T14:49:19.065Z,0.75
2022-12-09T14:51:54.272Z,0.50
2022-12-09T14:54:30.159Z,0.70
2022-12-09T14:57:03.807Z,0.65
2022-12-09T14:59:37.143Z,0.65
2022-12-09T15:02:11.001Z,0.63
2022-12-09T15:04:47.493Z,0.60
2022-12-09T15:07:29.398Z,0.50
2022-12-09T15:12:45.787Z,0.50
2022-12-09T15:15:27.251Z,0.50
2022-12-09T15:20:52.415Z,0.63
2022-12-09T15:23:32.585Z,0.50
2022-12-09T15:26:08.748Z,0.60
2022-12-09T15:28:40.402Z,0.60
2022-12-09T15:31:20.377Z,0.52
2022-12-09T15:33:54.741Z,0.60
2022-12-09T15:36:29.769Z,0.60
2022-12-09T15:39:04.820Z,0.65
2022-12-09T15:41:57.548Z,0.77
2022-12-09T15:44:29.804Z,0.60
2022-12-09T15:47:02.494Z,0.60
2022-12-09T15:49:39.882Z,0.70
2022-12-09T15:52:10.748Z,0.55
2022-12-09T15:54:43.380Z,0.63
2022-12-09T15:57:15.953Z,0.60
2022-12-09T15:59:55.838Z,1.00
2022-12-09T16:02:31.412Z,0.60
2022-12-09T16:05:05.544Z,0.80
2022-12-09T16:07:36.352Z,0.68
2022-12-09T16:10:14.638Z,0.93
2022-12-09T16:12:46.417Z,0.47
2022-12-09T16:15:48.087Z,0.80
2022-12-09T16:18:21.995Z,0.65
2022-12-09T16:21:03.380Z,1.98
2022-12-09T16:23:34.940Z,0.90
2022-12-09T16:28:38.464Z,0.75
2022-12-09T16:31:19.914Z,0.70
2022-12-09T16:33:51.305Z,0.60
2022-12-09T16:36:26.649Z,0.60
2022-12-09T16:39:26.383Z,1.58
2022-12-09T16:42:01.949Z,2.22
2022-12-09T16:44:38.448Z,0.90
2022-12-09T16:47:16.332Z,0.70
2022-12-09T16:49:50.122Z,0.63
2022-12-09T16:52:26.147Z,0.55
2022-12-09T16:54:57.069Z,0.80
2022-12-09T16:57:27.747Z,0.60
2022-12-09T16:59:58.511Z,1.50
2022-12-09T17:02:42.217Z,0.50
2022-12-09T17:05:13.376Z,0.60
2022-12-09T17:07:44.337Z,0.70
2022-12-09T17:10:16.650Z,0.67
2022-12-09T17:12:47.903Z,0.77
2022-12-09T17:15:21.338Z,0.70
2022-12-09T17:17:52.598Z,0.70
2022-12-09T17:20:23.298Z,0.85
2022-12-09T17:22:54.307Z,0.60
2022-12-09T17:25:25.289Z,0.60
2022-12-09T17:27:56.326Z,0.80
2022-12-09T17:30:27.239Z,0.90
2022-12-09T17:32:58.310Z,0.82
2022-12-09T17:35:29.381Z,0.93
2022-12-09T17:38:00.356Z,0.98
2022-12-09T17:40:31.302Z,0.90
2022-12-09T17:43:02.178Z,0.82
2022-12-09T17:45:37.427Z,0.80
2022-12-09T17:48:12.963Z,0.77
2022-12-09T17:50:43.977Z,0.80
2022-12-09T17:53:14.858Z,0.80
2022-12-09T17:55:46.072Z,0.70
2022-12-09T17:58:16.985Z,0.60
2022-12-09T18:00:49.252Z,0.80
2022-12-09T18:03:39.434Z,0.70
2022-12-09T18:06:11.619Z,0.50
2022-12-09T18:08:42.383Z,0.60
2022-12-09T18:11:13.459Z,0.70
2022-12-09T18:13:44.125Z,0.65
2022-12-09T18:16:16.145Z,0.60
2022-12-09T18:18:47.290Z,0.70
2022-12-09T18:21:21.096Z,0.70
2022-12-09T18:23:52.009Z,0.70
2022-12-09T18:26:27.176Z,0.70
2022-12-09T18:29:01.829Z,0.80
2022-12-09T18:31:33.375Z,0.80
2022-12-09T18:34:04.320Z,0.82
2022-12-09T18:36:35.588Z,0.88
2022-12-09T18:39:06.805Z,0.82
2022-12-09T18:41:38.317Z,0.90
2022-12-09T18:44:10.343Z,0.75
2022-12-09T18:46:47.545Z,0.80
2022-12-09T18:49:28.454Z,1.10
2022-12-09T18:51:59.400Z,1.15
2022-12-09T18:54:33.829Z,1.00
2022-12-09T18:57:05.301Z,1.02
2022-12-09T18:59:36.256Z,0.75
2022-12-09T19:02:07.229Z,0.90
2022-12-09T19:04:39.295Z,0.90
2022-12-09T19:07:10.432Z,1.10
2022-12-09T19:09:43.306Z,0.80
2022-12-09T19:12:45.849Z,0.90
2022-12-09T19:15:06.194Z,1.00
2022-12-09T19:17:37.356Z,1.00
2022-12-09T19:20:09.384Z,1.02
2022-12-09T19:22:40.504Z,0.90
2022-12-09T19:25:11.600Z,0.80
2022-12-09T19:27:42.823Z,0.80
2022-12-09T19:30:14.505Z,0.90
2022-12-09T19:32:53.509Z,0.90
2022-12-09T19:35:25.071Z,0.80
2022-12-09T19:38:01.097Z,1.05
2022-12-09T19:40:32.184Z,0.80
2022-12-09T19:43:03.087Z,1.00
2022-12-09T19:45:35.469Z,1.00
2022-12-09T19:48:07.057Z,0.82
2022-12-09T19:50:37.950Z,0.85
2022-12-09T19:53:09.428Z,0.70
2022-12-09T19:55:40.496Z,0.70
2022-12-09T19:58:11.455Z,0.65
2022-12-09T20:00:42.335Z,0.70
2022-12-09T20:03:13.699Z,1.02
2022-12-09T20:05:56.059Z,1.38
2022-12-09T20:08:26.771Z,1.52
2022-12-09T20:10:57.429Z,1.33
2022-12-09T20:13:31.837Z,2.00
2022-12-09T20:16:07.713Z,1.30
2022-12-09T20:18:39.513Z,0.90
2022-12-09T20:21:13.151Z,0.70
2022-12-09T20:23:45.105Z,0.90
2022-12-09T20:26:23.655Z,0.90
2022-12-09T20:28:56.836Z,0.70
2022-12-09T20:31:33.032Z,0.60
2022-12-09T20:34:10.023Z,0.60
2022-12-09T20:36:43.369Z,0.50
2022-12-09T20:39:18.371Z,0.50
2022-12-09T20:41:50.205Z,0.60
2022-12-09T20:44:21.618Z,0.70
2022-12-09T20:49:27.614Z,0.70
2022-12-09T20:51:58.761Z,0.50
2022-12-09T20:54:29.731Z,0.90
2022-12-09T20:57:00.676Z,0.70
2022-12-09T20:59:31.667Z,0.88
2022-12-09T21:02:02.644Z,0.60
2022-12-09T21:04:33.617Z,0.70
2022-12-09T21:07:04.644Z,0.75
2022-12-09T21:09:35.589Z,0.77
2022-12-09T21:12:06.684Z,0.80
2022-12-09T21:14:38.545Z,0.80
2022-12-09T21:17:10.305Z,0.90
2022-12-09T21:22:11.673Z,0.70
2022-12-09T21:24:42.715Z,0.80
2022-12-09T21:27:14.062Z,1.02
2022-12-09T21:29:44.987Z,0.80
2022-12-09T21:32:15.721Z,1.20
2022-12-09T21:34:46.507Z,0.90
2022-12-09T21:37:17.445Z,1.02
2022-12-09T21:39:49.465Z,0.90
2022-12-09T21:42:20.232Z,1.00
2022-12-09T21:44:51.156Z,1.02
2022-12-09T21:47:21.844Z,0.77
2022-12-09T21:49:53.027Z,0.70
2022-12-09T21:52:24.256Z,1.20
2022-12-09T21:54:55.623Z,1.30
2022-12-09T21:59:56.942Z,1.13
2022-12-09T22:02:27.744Z,1.17
2022-12-09T22:04:58.537Z,1.45
2022-12-09T22:07:29.475Z,1.10
2022-12-09T22:10:00.648Z,1.50
2022-12-09T22:12:31.791Z,1.23
2022-12-09T22:15:03.265Z,1.45
2022-12-09T22:17:34.742Z,1.20
2022-12-09T22:20:48.985Z,1.38
2022-12-09T22:22:59.564Z,1.02
2022-12-09T22:25:30.691Z,1.40
2022-12-09T22:28:01.517Z,1.42
2022-12-09T22:30:32.553Z,1.35
2022-12-09T22:33:03.800Z,1.10
2022-12-09T22:35:35.435Z,1.20
2022-12-09T22:38:12.788Z,1.10
2022-12-09T22:40:45.623Z,1.30
2022-12-09T22:43:16.521Z,1.15
2022-12-09T22:45:47.457Z,1.70
2022-12-09T22:48:18.461Z,1.30
2022-12-09T22:50:50.229Z,1.27
2022-12-09T22:53:21.196Z,1.23
2022-12-09T22:55:52.001Z,1.40
2022-12-09T22:58:22.698Z,0.70
2022-12-09T23:00:53.657Z,1.10
2022-12-09T23:03:24.596Z,1.00
2022-12-09T23:05:55.929Z,0.80
2022-12-09T23:08:26.805Z,0.90
2022-12-09T23:11:01.688Z,0.90
2022-12-09T23:13:36.214Z,0.80
2022-12-09T23:16:15.028Z,0.68
2022-12-09T23:18:46.199Z,0.80
2022-12-09T23:21:32.121Z,1.05
2022-12-09T23:24:05.618Z,1.10
2022-12-09T23:26:38.940Z,1.75
2022-12-09T23:29:14.737Z,1.20
2022-12-09T23:31:45.888Z,1.05
2022-12-09T23:36:47.799Z,0.70
2022-12-09T23:39:20.232Z,0.60
2022-12-09T23:41:51.200Z,0.85
2022-12-09T23:44:22.154Z,0.80
2022-12-09T23:46:53.051Z,0.80
2022-12-09T23:49:24.058Z,0.70
2022-12-09T23:51:55.535Z,0.80
2022-12-09T23:54:26.415Z,0.68
2022-12-09T23:56:57.301Z,0.70
2022-12-09T23:59:28.192Z,0.70
